createdAt,value
2023-02-18T00:00:16.678Z,7.90
2023-02-18T00:02:43.950Z,8.00
2023-02-18T00:05:10.634Z,7.90
2023-02-18T00:07:37.727Z,8.00
2023-02-18T00:10:05.396Z,8.10
2023-02-18T00:12:31.713Z,8.10
2023-02-18T00:14:58.178Z,8.10
2023-02-18T00:17:24.473Z,8.10
2023-02-18T00:19:58.382Z,8.10
2023-02-18T00:22:25.100Z,8.10
2023-02-18T00:24:51.437Z,8.20
2023-02-18T00:27:17.781Z,8.20
2023-02-18T00:29:44.003Z,8.30
2023-02-18T00:32:11.394Z,8.20
2023-02-18T00:34:37.890Z,8.20
2023-02-18T00:37:04.271Z,8.00
2023-02-18T00:39:30.434Z,8.10
2023-02-18T00:41:56.638Z,8.00
2023-02-18T00:44:23.192Z,7.90
2023-02-18T00:46:50.058Z,8.00
2023-02-18T00:49:16.351Z,8.00
2023-02-18T00:51:42.613Z,7.80
2023-02-18T00:54:09.148Z,7.70
2023-02-18T00:56:35.372Z,7.70
2023-02-18T00:59:01.515Z,7.60
2023-02-18T01:01:28.183Z,7.60
2023-02-18T01:03:54.602Z,7.60
2023-02-18T01:06:21.666Z,7.50
2023-02-18T01:08:48.019Z,7.40
2023-02-18T01:11:14.703Z,7.30
2023-02-18T01:13:41.387Z,7.30
2023-02-18T01:16:08.478Z,7.40
2023-02-18T01:18:35.682Z,7.30
2023-02-18T01:21:02.207Z,7.30
2023-02-18T01:23:28.384Z,7.30
2023-02-18T01:25:55.577Z,7.20
2023-02-18T01:28:24.633Z,7.20
2023-02-18T01:30:52.237Z,7.20
2023-02-18T01:33:19.224Z,9.30
2023-02-18T01:35:45.462Z,7.00
2023-02-18T01:38:11.589Z,7.00
2023-02-18T01:40:44.803Z,6.90
2023-02-18T01:43:12.348Z,7.10
2023-02-18T01:46:00.484Z,7.20
2023-02-18T01:51:50.166Z,7.10
2023-02-18T01:54:27.330Z,7.20
2023-02-18T01:57:40.171Z,8.00
2023-02-18T02:00:11.756Z,7.00
2023-02-18T02:02:40.491Z,7.00
2023-02-18T02:05:07.305Z,6.90
2023-02-18T02:07:33.458Z,6.90
2023-02-18T02:09:59.865Z,6.80
2023-02-18T02:13:08.427Z,6.80
2023-02-18T02:15:44.115Z,7.00
2023-02-18T02:18:49.117Z,6.90
2023-02-18T02:21:49.103Z,7.00
2023-02-18T02:24:41.574Z,7.10
2023-02-18T02:27:19.196Z,7.10
2023-02-18T02:30:09.299Z,7.00
2023-02-18T02:33:05.468Z,8.60
2023-02-18T02:35:43.921Z,6.90
2023-02-18T02:38:21.163Z,6.90
2023-02-18T02:41:18.336Z,6.80
2023-02-18T02:44:19.236Z,6.80
2023-02-18T02:46:47.563Z,6.70
2023-02-18T02:51:09.719Z,6.70
2023-02-18T02:53:36.852Z,6.40
2023-02-18T02:56:03.246Z,6.30
2023-02-18T02:58:29.612Z,6.20
2023-02-18T03:01:31.567Z,6.20
2023-02-18T03:04:52.690Z,6.30
2023-02-18T03:12:44.306Z,6.30
2023-02-18T03:15:56.345Z,6.20
2023-02-18T03:21:08.456Z,6.40
2023-02-18T03:23:41.349Z,6.20
2023-02-18T03:26:07.732Z,6.20
2023-02-18T03:28:34.422Z,6.10
2023-02-18T03:31:05.974Z,6.10
2023-02-18T03:33:37.031Z,6.10
2023-02-18T03:36:03.743Z,6.10
2023-02-18T03:38:59.064Z,6.20
2023-02-18T03:41:25.355Z,6.10
2023-02-18T03:43:52.565Z,6.10
2023-02-18T03:46:18.753Z,6.10
2023-02-18T03:48:44.996Z,6.10
2023-02-18T03:51:11.533Z,6.00
2023-02-18T03:53:37.687Z,6.10
2023-02-18T03:56:04.552Z,6.10
2023-02-18T03:58:30.818Z,6.00
2023-02-18T04:00:56.983Z,5.90
2023-02-18T04:03:23.198Z,5.90
2023-02-18T04:05:49.678Z,5.90
2023-02-18T04:08:16.647Z,6.00
2023-02-18T04:10:43.884Z,5.90
2023-02-18T04:13:10.638Z,6.00
2023-02-18T04:15:36.834Z,6.00
2023-02-18T04:18:03.292Z,6.00
2023-02-18T04:20:29.493Z,6.00
2023-02-18T04:22:55.674Z,6.00
2023-02-18T04:25:21.952Z,5.90
2023-02-18T04:27:48.437Z,5.90
2023-02-18T04:30:16.747Z,5.80
2023-02-18T04:32:44.133Z,5.80
2023-02-18T04:35:10.780Z,5.70
2023-02-18T04:37:36.947Z,5.70
2023-02-18T04:40:03.542Z,5.70
2023-02-18T04:42:30.796Z,5.70
2023-02-18T04:44:57.479Z,5.60
2023-02-18T04:47:24.490Z,5.50
2023-02-18T04:49:50.713Z,5.60
2023-02-18T04:52:17.223Z,5.60
2023-02-18T04:54:43.778Z,5.70
2023-02-18T04:57:09.943Z,5.70
2023-02-18T04:59:36.227Z,5.90
2023-02-18T05:02:02.439Z,5.90
2023-02-18T05:04:28.917Z,6.00
2023-02-18T05:06:55.068Z,5.90
2023-02-18T05:09:21.468Z,5.90
2023-02-18T05:11:48.156Z,5.80
2023-02-18T05:14:15.090Z,5.80
2023-02-18T05:16:41.397Z,5.80
2023-02-18T05:19:07.822Z,5.70
2023-02-18T05:21:33.986Z,5.70
2023-02-18T05:24:00.475Z,5.70
2023-02-18T05:26:26.721Z,5.70
2023-02-18T05:28:52.925Z,5.80
2023-02-18T05:31:19.214Z,5.80
2023-02-18T05:33:45.548Z,5.90
2023-02-18T05:36:11.705Z,5.90
2023-02-18T05:38:38.254Z,5.90
2023-02-18T05:41:05.512Z,5.90
2023-02-18T05:44:29.399Z,5.90
2023-02-18T05:46:59.883Z,6.00
2023-02-18T05:49:26.111Z,6.10
2023-02-18T05:51:52.255Z,6.20
2023-02-18T05:54:18.498Z,6.20
2023-02-18T05:56:45.554Z,6.20
2023-02-18T05:59:11.948Z,6.30
2023-02-18T06:01:38.345Z,6.40
2023-02-18T06:04:04.706Z,6.40
2023-02-18T06:06:31.153Z,6.50
2023-02-18T06:08:57.372Z,6.50
2023-02-18T06:11:23.552Z,6.60
2023-02-18T06:13:49.858Z,6.50
2023-02-18T06:16:16.039Z,6.50
2023-02-18T06:18:42.293Z,7.10
2023-02-18T06:21:08.859Z,7.50
2023-02-18T06:23:35.003Z,7.30
2023-02-18T06:26:01.201Z,7.20
2023-02-18T06:28:28.180Z,7.00
2023-02-18T06:30:54.779Z,7.00
2023-02-18T06:33:21.879Z,7.00
2023-02-18T06:35:58.830Z,7.00
2023-02-18T06:38:25.063Z,7.00
2023-02-18T06:40:51.322Z,7.00
2023-02-18T06:43:18.017Z,7.00
2023-02-18T06:45:44.292Z,7.00
2023-02-18T06:48:10.599Z,7.00
2023-02-18T06:50:37.052Z,7.10
2023-02-18T06:53:03.588Z,7.10
2023-02-18T06:55:30.220Z,7.10
2023-02-18T06:57:56.419Z,7.10
2023-02-18T07:00:23.298Z,7.20
2023-02-18T07:02:49.467Z,7.20
2023-02-18T07:05:15.972Z,7.20
2023-02-18T07:07:42.133Z,7.20
2023-02-18T07:10:09.108Z,7.10
2023-02-18T07:12:35.304Z,7.10
2023-02-18T07:15:01.780Z,7.10
2023-02-18T07:17:28.530Z,7.00
2023-02-18T07:19:55.584Z,7.00
2023-02-18T07:22:22.206Z,7.00
2023-02-18T07:24:53.473Z,7.00
2023-02-18T07:27:20.061Z,7.00
2023-02-18T07:29:47.447Z,7.10
2023-02-18T07:32:14.650Z,7.10
2023-02-18T07:34:41.634Z,7.10
2023-02-18T07:37:09.605Z,7.10
2023-02-18T07:39:38.817Z,7.10
2023-02-18T07:42:05.104Z,7.20
2023-02-18T07:44:31.476Z,7.40
2023-02-18T07:46:57.876Z,7.50
2023-02-18T07:49:24.330Z,7.70
2023-02-18T07:51:50.477Z,7.70
2023-02-18T07:54:18.017Z,7.80
2023-02-18T07:56:44.675Z,7.90
2023-02-18T07:59:12.417Z,7.90
2023-02-18T08:01:39.024Z,8.00
2023-02-18T08:04:05.328Z,8.00
2023-02-18T08:06:34.262Z,8.10
2023-02-18T08:09:01.205Z,8.10
2023-02-18T08:11:27.348Z,8.20
2023-02-18T08:13:54.182Z,8.30
2023-02-18T08:16:20.879Z,8.40
2023-02-18T08:18:47.866Z,8.40
2023-02-18T08:21:14.912Z,8.50
2023-02-18T08:23:41.079Z,8.40
2023-02-18T08:26:07.529Z,8.40
2023-02-18T08:28:34.855Z,8.50
2023-02-18T08:31:01.678Z,8.50
2023-02-18T08:33:30.063Z,8.40
2023-02-18T08:35:56.483Z,8.40
2023-02-18T08:38:23.936Z,8.50
2023-02-18T08:40:50.292Z,8.50
2023-02-18T08:43:17.047Z,8.50
2023-02-18T08:45:43.780Z,8.50
2023-02-18T08:48:18.028Z,8.50
2023-02-18T08:50:46.946Z,8.50
2023-02-18T08:53:13.193Z,8.70
2023-02-18T08:55:40.329Z,8.70
2023-02-18T08:58:07.467Z,8.70
2023-02-18T09:00:33.816Z,8.60
2023-02-18T09:03:00.034Z,8.60
2023-02-18T09:05:26.588Z,8.60
2023-02-18T09:07:52.794Z,8.60
2023-02-18T09:10:19.133Z,8.50
2023-02-18T09:12:47.300Z,8.50
2023-02-18T09:15:13.618Z,8.50
2023-02-18T09:17:39.769Z,8.50
2023-02-18T09:20:08.226Z,8.60
2023-02-18T09:22:34.775Z,8.60
2023-02-18T09:25:01.112Z,8.60
2023-02-18T09:27:27.360Z,8.60
2023-02-18T09:29:53.958Z,8.50
2023-02-18T09:32:33.657Z,8.50
2023-02-18T09:35:02.075Z,8.40
2023-02-18T09:37:28.797Z,7.00
2023-02-18T09:39:55.499Z,8.30
2023-02-18T09:42:24.155Z,8.30
2023-02-18T09:44:55.358Z,8.30
2023-02-18T09:47:32.877Z,8.30
2023-02-18T09:50:03.570Z,8.20
2023-02-18T09:52:35.734Z,8.20
2023-02-18T09:55:14.810Z,8.20
2023-02-18T09:57:47.052Z,8.20
2023-02-18T10:01:49.721Z,8.30
2023-02-18T10:04:29.894Z,8.30
2023-02-18T10:06:56.823Z,8.30
2023-02-18T10:09:45.839Z,8.30
2023-02-18T10:12:17.118Z,8.20
2023-02-18T10:14:47.891Z,8.10
2023-02-18T10:17:14.743Z,8.00
2023-02-18T10:19:40.958Z,8.10
2023-02-18T10:22:09.839Z,8.10
2023-02-18T10:25:01.167Z,8.20
2023-02-18T10:27:32.698Z,8.20
2023-02-18T10:30:23.289Z,8.10
2023-02-18T10:32:55.210Z,8.10
2023-02-18T10:35:34.322Z,8.10
2023-02-18T10:44:56.900Z,8.00
2023-02-18T10:47:52.925Z,7.90
2023-02-18T10:50:48.103Z,7.80
2023-02-18T10:53:37.329Z,7.70
2023-02-18T10:56:05.446Z,7.70
2023-02-18T10:58:47.735Z,7.60
2023-02-18T11:01:21.138Z,7.70
2023-02-18T11:03:52.128Z,7.60
2023-02-18T11:06:37.432Z,7.60
2023-02-18T11:09:04.303Z,7.60
2023-02-18T11:11:33.763Z,7.60
2023-02-18T11:14:04.198Z,7.70
2023-02-18T11:17:15.974Z,7.80
2023-02-18T11:19:43.206Z,7.70
2023-02-18T11:22:28.696Z,7.80
2023-02-18T11:24:57.419Z,7.90
2023-02-18T11:27:43.538Z,8.00
2023-02-18T11:30:54.328Z,8.10
2023-02-18T11:33:33.873Z,8.20
2023-02-18T11:36:38.188Z,8.20
2023-02-18T11:39:33.532Z,8.20
2023-02-18T11:42:05.678Z,8.00
2023-02-18T11:44:38.280Z,8.00
2023-02-18T11:47:33.847Z,8.00
2023-02-18T11:50:14.503Z,10.40
2023-02-18T11:52:44.137Z,8.00
2023-02-18T11:55:27.342Z,7.90
2023-02-18T11:58:01.700Z,7.80
2023-02-18T12:01:54.565Z,7.70
2023-02-18T12:05:15.887Z,7.70
2023-02-18T12:07:50.328Z,7.60
2023-02-18T12:10:32.247Z,7.50
2023-02-18T12:13:04.913Z,7.50
2023-02-18T12:15:51.320Z,7.40
2023-02-18T12:23:08.161Z,7.40
2023-02-18T12:25:57.945Z,7.40
2023-02-18T12:31:32.562Z,7.30
2023-02-18T12:34:26.097Z,7.30
2023-02-18T12:37:19.805Z,7.10
2023-02-18T12:43:11.800Z,7.00
2023-02-18T12:46:05.761Z,6.80
2023-02-18T12:50:22.845Z,6.80
2023-02-18T12:54:03.715Z,6.70
2023-02-18T12:57:18.895Z,6.50
2023-02-18T13:00:44.617Z,6.50
2023-02-18T13:03:46.866Z,6.40
2023-02-18T13:06:51.903Z,6.40
2023-02-18T13:14:03.146Z,6.40
2023-02-18T13:16:29.664Z,6.40
2023-02-18T13:19:25.955Z,6.40
2023-02-18T13:21:58.055Z,6.40
2023-02-18T13:24:37.215Z,6.40
2023-02-18T13:35:22.907Z,6.40
2023-02-18T13:38:26.452Z,6.40
2023-02-18T13:40:52.869Z,6.40
2023-02-18T13:43:41.354Z,6.40
2023-02-18T13:46:18.707Z,6.50
2023-02-18T13:52:19.255Z,6.40
2023-02-18T13:54:46.471Z,6.50
2023-02-18T13:57:20.133Z,6.50
2023-02-18T13:59:59.597Z,6.50
2023-02-18T14:02:31.472Z,6.50
2023-02-18T14:05:58.753Z,6.50
2023-02-18T14:08:36.375Z,6.50
2023-02-18T14:11:26.924Z,6.50
2023-02-18T14:17:11.656Z,6.50
2023-02-18T14:19:38.937Z,6.50
2023-02-18T14:22:27.669Z,6.50
2023-02-18T14:25:35.812Z,6.50
2023-02-18T14:28:48.636Z,6.50
2023-02-18T14:31:41.609Z,6.50
2023-02-18T14:36:08.095Z,6.50
2023-02-18T14:38:59.514Z,6.50
2023-02-18T14:47:02.491Z,6.50
2023-02-18T14:49:43.840Z,6.70
2023-02-18T14:52:35.309Z,6.70
2023-02-18T14:55:02.917Z,6.70
2023-02-18T14:57:44.922Z,6.80
2023-02-18T15:00:19.120Z,6.90
2023-02-18T15:02:52.104Z,6.20
2023-02-18T15:05:21.008Z,6.80
2023-02-18T15:08:03.816Z,9.80
2023-02-18T15:10:48.722Z,6.90
2023-02-18T15:13:32.050Z,7.10
2023-02-18T15:16:08.425Z,7.00
2023-02-18T15:18:38.216Z,7.00
2023-02-18T15:21:06.868Z,9.70
2023-02-18T15:23:38.436Z,7.00
2023-02-18T15:26:05.387Z,7.00
2023-02-18T15:28:32.588Z,7.10
2023-02-18T15:31:00.402Z,7.10
2023-02-18T15:33:27.813Z,7.30
2023-02-18T15:36:02.796Z,7.40
2023-02-18T15:38:29.445Z,7.60
2023-02-18T15:40:56.881Z,7.80
2023-02-18T15:43:25.988Z,8.10
2023-02-18T15:45:57.134Z,8.40
2023-02-18T15:48:52.286Z,8.70
2023-02-18T15:51:25.022Z,8.80
2023-02-18T15:53:53.700Z,9.10
2023-02-18T15:56:34.146Z,9.20
2023-02-18T16:00:04.365Z,9.30
2023-02-18T16:02:32.552Z,9.30
2023-02-18T16:05:00.163Z,9.40
2023-02-18T16:07:31.516Z,9.40
2023-02-18T16:10:23.275Z,9.40
2023-02-18T16:12:53.773Z,9.40
2023-02-18T16:15:30.918Z,9.30
2023-02-18T16:17:59.705Z,9.30
2023-02-18T16:20:30.477Z,9.30
2023-02-18T16:23:01.369Z,9.30
2023-02-18T16:25:44.158Z,9.20
2023-02-18T16:28:30.847Z,9.20
2023-02-18T16:30:57.974Z,9.20
2023-02-18T16:33:24.448Z,9.30
2023-02-18T16:35:51.494Z,9.30
2023-02-18T16:38:20.715Z,9.30
2023-02-18T16:40:47.440Z,9.40
2023-02-18T16:43:26.188Z,9.40
2023-02-18T16:46:01.125Z,11.90
2023-02-18T16:48:41.876Z,9.40
2023-02-18T16:51:26.152Z,9.40
2023-02-18T16:53:52.980Z,9.50
2023-02-18T16:56:23.564Z,9.50
2023-02-18T16:58:52.968Z,9.50
2023-02-18T17:01:39.985Z,9.50
2023-02-18T17:04:09.379Z,9.70
2023-02-18T17:06:37.298Z,9.70
2023-02-18T17:09:15.888Z,9.60
2023-02-18T17:11:43.634Z,9.60
2023-02-18T17:14:13.842Z,10.30
2023-02-18T17:16:40.566Z,9.60
2023-02-18T17:19:08.853Z,9.50
2023-02-18T17:21:35.200Z,9.60
2023-02-18T17:24:01.696Z,9.50
2023-02-18T17:26:29.287Z,9.70
2023-02-18T17:28:57.625Z,9.70
2023-02-18T17:31:29.136Z,9.70
2023-02-18T17:33:56.336Z,9.70
2023-02-18T17:36:24.331Z,9.80
2023-02-18T17:38:50.996Z,9.80
2023-02-18T17:41:18.016Z,9.80
2023-02-18T17:43:44.659Z,9.80
2023-02-18T17:46:17.926Z,9.80
2023-02-18T17:48:46.482Z,9.80
2023-02-18T17:51:25.005Z,9.80
2023-02-18T17:53:51.529Z,9.80
2023-02-18T17:56:19.144Z,9.80
2023-02-18T17:58:46.081Z,9.80
2023-02-18T18:01:13.151Z,9.80
2023-02-18T18:03:39.920Z,9.80
2023-02-18T18:06:14.439Z,9.80
2023-02-18T18:08:40.907Z,9.80
2023-02-18T18:11:11.146Z,9.80
2023-02-18T18:13:38.904Z,9.70
2023-02-18T18:16:06.368Z,9.70
2023-02-18T18:18:33.424Z,9.70
2023-02-18T18:21:00.075Z,9.70
2023-02-18T18:23:29.244Z,9.70
2023-02-18T18:25:57.357Z,9.30
2023-02-18T18:28:25.257Z,9.60
2023-02-18T18:30:53.207Z,9.60
2023-02-18T18:33:28.512Z,9.60
2023-02-18T18:35:56.357Z,9.60
2023-02-18T18:38:24.895Z,9.40
2023-02-18T18:40:52.011Z,9.60
2023-02-18T18:43:32.497Z,9.60
2023-02-18T18:46:01.151Z,9.50
2023-02-18T18:48:28.201Z,9.40
2023-02-18T18:50:58.287Z,9.30
2023-02-18T18:53:32.130Z,9.20
2023-02-18T18:56:05.950Z,9.20
2023-02-18T18:58:33.893Z,9.10
2023-02-18T19:01:02.821Z,9.00
2023-02-18T19:03:30.283Z,8.80
2023-02-18T19:05:57.790Z,8.60
2023-02-18T19:08:24.838Z,8.40
2023-02-18T19:10:59.748Z,8.30
2023-02-18T19:13:30.810Z,8.20
2023-02-18T19:16:21.890Z,8.00
2023-02-18T19:18:48.477Z,8.00
2023-02-18T19:21:16.542Z,8.60
2023-02-18T19:23:43.296Z,7.90
2023-02-18T19:26:10.545Z,7.90
2023-02-18T19:28:38.185Z,7.80
2023-02-18T19:31:09.376Z,7.80
2023-02-18T19:33:36.770Z,7.80
2023-02-18T19:36:08.236Z,7.80
2023-02-18T19:38:34.868Z,7.70
2023-02-18T19:41:09.239Z,7.70
2023-02-18T19:43:36.056Z,7.70
2023-02-18T19:46:09.392Z,7.60
2023-02-18T19:48:36.568Z,7.60
2023-02-18T19:51:05.285Z,7.60
2023-02-18T19:53:31.686Z,7.60
2023-02-18T19:56:01.279Z,7.60
2023-02-18T19:58:29.205Z,7.50
2023-02-18T20:00:56.724Z,7.50
2023-02-18T20:03:23.134Z,7.50
2023-02-18T20:05:49.749Z,7.50
2023-02-18T20:08:17.349Z,7.50
2023-02-18T20:10:43.880Z,7.40
2023-02-18T20:13:11.668Z,7.50
2023-02-18T20:15:43.665Z,7.40
2023-02-18T20:18:10.946Z,7.40
2023-02-18T20:20:38.772Z,7.40
2023-02-18T20:23:05.472Z,7.40
2023-02-18T20:25:33.064Z,7.40
2023-02-18T20:28:01.609Z,7.30
2023-02-18T20:30:28.685Z,7.30
2023-02-18T20:32:56.404Z,7.30
2023-02-18T20:35:24.284Z,7.30
2023-02-18T20:37:51.732Z,7.20
2023-02-18T20:40:19.722Z,7.20
2023-02-18T20:42:46.346Z,7.20
2023-02-18T20:45:17.758Z,7.10
2023-02-18T20:47:57.752Z,7.10
2023-02-18T20:50:25.397Z,7.00
2023-02-18T20:52:54.913Z,6.90
2023-02-18T20:55:26.353Z,6.80
2023-02-18T20:57:54.068Z,6.70
2023-02-18T21:00:22.492Z,6.60
2023-02-18T21:02:52.501Z,6.60
2023-02-18T21:05:25.409Z,6.60
2023-02-18T21:07:54.339Z,6.60
2023-02-18T21:10:22.355Z,6.60
2023-02-18T21:12:50.240Z,6.60
2023-02-18T21:15:17.398Z,6.60
2023-02-18T21:17:46.256Z,6.50
2023-02-18T21:20:15.154Z,6.50
2023-02-18T21:22:44.112Z,6.50
2023-02-18T21:25:14.683Z,6.50
2023-02-18T21:27:43.380Z,6.60
2023-02-18T21:30:13.920Z,6.50
2023-02-18T21:32:40.676Z,6.50
2023-02-18T21:35:08.821Z,6.50
2023-02-18T21:37:37.400Z,6.50
2023-02-18T21:40:05.166Z,6.50
2023-02-18T21:42:36.990Z,6.50
2023-02-18T21:45:06.572Z,6.50
2023-02-18T21:47:42.509Z,6.40
2023-02-18T21:50:13.050Z,6.40
2023-02-18T21:52:44.432Z,6.40
2023-02-18T21:55:11.617Z,6.40
2023-02-18T21:57:38.740Z,6.30
2023-02-18T22:00:19.546Z,6.30
2023-02-18T22:02:48.368Z,6.30
2023-02-18T22:05:16.032Z,6.20
2023-02-18T22:07:44.803Z,6.20
2023-02-18T22:10:13.625Z,6.10
2023-02-18T22:12:42.311Z,6.10
2023-02-18T22:15:09.271Z,6.10
2023-02-18T22:17:40.383Z,6.10
2023-02-18T22:20:11.454Z,6.00
2023-02-18T22:22:44.756Z,6.00
2023-02-18T22:25:13.288Z,6.00
2023-02-18T22:27:41.041Z,6.60
2023-02-18T22:30:09.653Z,6.00
2023-02-18T22:32:37.132Z,6.00
2023-02-18T22:35:04.447Z,6.00
2023-02-18T22:37:33.167Z,6.00
2023-02-18T22:40:00.115Z,6.00
2023-02-18T22:42:27.230Z,6.00
2023-02-18T22:44:56.750Z,6.00
2023-02-18T22:47:23.889Z,5.90
2023-02-18T22:49:51.052Z,5.90
2023-02-18T22:52:18.802Z,5.90
2023-02-18T22:54:45.870Z,5.90
2023-02-18T22:57:12.392Z,5.80
2023-02-18T22:59:38.997Z,5.80
2023-02-18T23:02:06.589Z,5.80
2023-02-18T23:04:33.253Z,5.80
2023-02-18T23:06:59.689Z,5.80
2023-02-18T23:09:27.653Z,5.80
2023-02-18T23:11:59.846Z,5.80
2023-02-18T23:14:27.935Z,5.80
2023-02-18T23:17:14.547Z,5.80
2023-02-18T23:19:49.422Z,5.80
2023-02-18T23:22:28.139Z,7.00
2023-02-18T23:24:55.870Z,5.70
2023-02-18T23:27:23.900Z,5.70
2023-02-18T23:29:50.661Z,5.70
2023-02-18T23:32:18.792Z,5.70
2023-02-18T23:34:45.358Z,5.70
2023-02-18T23:37:11.777Z,5.70
2023-02-18T23:39:40.302Z,5.70
2023-02-18T23:42:07.283Z,5.70
2023-02-18T23:44:34.817Z,5.70
2023-02-18T23:47:02.064Z,5.70
2023-02-18T23:49:28.539Z,5.70
2023-02-18T23:51:56.624Z,5.80
2023-02-18T23:54:24.118Z,5.70
2023-02-18T23:56:51.952Z,5.70
2023-02-18T23:59:18.609Z,5.70
